Time;durP1;ratioP1;P1;durP2;ratioP2;P2;SDS_P1;SDS_P2;PMS_P1;PMS_P2;Temp;Humidity;BMP_temperature;BMP_pressure;BME280_temperature;BME280_humidity;BME280_pressure;Samples;Min_cycle;Max_cycle;Signal;HPM_P1;HPM_P2
2023/04/25 00:01:28;;;;;;;6.88;1.02;;;;;;;14.56;50.45;93591.22;4998869;28;20027;-89
2023/04/25 00:03:53;;;;;;;3.45;0.88;;;;;;;14.59;50.90;93589.84;4982735;28;20025;-89
2023/04/25 00:06:19;;;;;;;4.28;0.90;;;;;;;14.50;51.47;93589.06;4998786;28;20028;-89
2023/04/25 00:08:44;;;;;;;2.70;1.00;;;;;;;14.35;51.69;93583.19;4999744;28;20049;-90
2023/04/25 00:11:10;;;;;;;2.38;1.00;;;;;;;14.24;52.89;93595.09;4998350;28;20023;-89
2023/04/25 00:13:35;;;;;;;5.35;1.10;;;;;;;14.38;51.82;93592.34;4982565;28;20041;-89
2023/04/25 00:16:02;;;;;;;3.35;0.85;;;;;;;14.60;51.07;93594.03;4982584;28;20072;-89
2023/04/25 00:18:33;;;;;;;1.38;0.70;;;;;;;14.50;52.09;93589.84;4982653;28;20041;-88
2023/04/25 00:20:58;;;;;;;6.70;0.90;;;;;;;14.57;51.39;93584.13;4998560;28;20080;-89
2023/04/25 00:23:23;;;;;;;2.75;1.02;;;;;;;14.55;51.05;93594.97;4982504;28;20030;-89
2023/04/25 00:25:50;;;;;;;4.28;1.20;;;;;;;14.56;52.52;93580.69;4982105;28;20022;-89
2023/04/25 00:28:16;;;;;;;2.80;1.20;;;;;;;14.72;51.30;93590.78;4982266;28;20059;-89
2023/04/25 00:30:42;;;;;;;3.38;0.80;;;;;;;14.72;51.18;93577.59;4982242;28;20049;-89
2023/04/25 00:33:08;;;;;;;4.55;0.90;;;;;;;14.73;50.65;93573.88;4981648;28;20026;-88
2023/04/25 00:35:34;;;;;;;5.10;1.15;;;;;;;14.69;51.09;93578.19;4998459;28;20034;-89
2023/04/25 00:38:00;;;;;;;4.78;0.88;;;;;;;14.93;50.42;93572.44;4982061;28;20026;-89
2023/04/25 00:40:26;;;;;;;3.00;1.10;;;;;;;14.69;52.85;93570.28;4998098;28;20030;-89
2023/04/25 00:42:52;;;;;;;4.03;1.10;;;;;;;14.49;52.95;93569.06;4998133;28;20444;-89
2023/04/25 00:45:18;;;;;;;8.38;1.55;;;;;;;14.23;53.34;93564.56;4982132;28;20022;-89
2023/04/25 00:47:45;;;;;;;3.90;1.02;;;;;;;14.00;53.63;93573.38;4981760;28;20154;-90
2023/04/25 00:50:11;;;;;;;6.47;1.08;;;;;;;14.66;51.73;93565.66;4998767;28;20347;-89
2023/04/25 00:52:42;;;;;;;3.42;1.00;;;;;;;14.98;51.26;93564.34;4981934;28;20030;-89
2023/04/25 00:55:08;;;;;;;7.57;1.50;;;;;;;14.94;51.10;93566.09;4997537;28;20026;-89
2023/04/25 00:57:34;;;;;;;4.63;0.88;;;;;;;14.87;51.51;93565.81;4981768;28;20026;-89
2023/04/25 01:00:00;;;;;;;4.60;1.20;;;;;;;14.90;51.55;93569.66;4981874;28;20116;-89
2023/04/25 01:02:26;;;;;;;5.53;1.27;;;;;;;14.82;51.22;93558.81;4981703;28;20037;-89
2023/04/25 01:04:53;;;;;;;6.43;1.60;;;;;;;14.69;52.33;93560.50;4981753;28;20026;-88
2023/04/25 01:07:18;;;;;;;8.15;1.58;;;;;;;14.60;52.43;93556.34;4997648;28;20026;-89
2023/04/25 01:09:44;;;;;;;4.65;1.17;;;;;;;14.44;52.84;93570.00;4997699;28;20034;-90
2023/04/25 01:12:09;;;;;;;5.60;1.23;;;;;;;14.61;52.34;93563.16;4981257;28;20066;-89
2023/04/25 01:14:35;;;;;;;3.85;0.85;;;;;;;14.40;53.15;93566.44;4997363;28;20053;-89
2023/04/25 01:17:00;;;;;;;5.75;1.15;;;;;;;14.59;52.15;93581.16;4997374;28;20511;-89
2023/04/25 01:19:25;;;;;;;4.63;1.33;;;;;;;14.62;51.93;93572.63;4981325;28;20022;-89
2023/04/25 01:21:51;;;;;;;7.20;1.33;;;;;;;14.77;52.47;93568.75;4981561;28;20026;-89
2023/04/25 01:24:17;;;;;;;7.78;1.67;;;;;;;14.53;53.00;93565.50;4981251;28;20023;-89
2023/04/25 01:26:49;;;;;;;3.58;1.02;;;;;;;14.93;51.94;93566.41;4997271;28;20428;-88
2023/04/25 01:29:15;;;;;;;2.78;1.48;;;;;;;14.90;51.84;93556.47;4981922;28;20051;-89
2023/04/25 01:31:40;;;;;;;6.05;1.40;;;;;;;14.86;53.82;93553.72;4983461;28;20069;-89
2023/04/25 01:34:06;;;;;;;8.82;2.08;;;;;;;15.07;54.20;93561.72;5016684;28;20328;-89
2023/04/25 01:36:32;;;;;;;7.82;1.23;;;;;;;14.91;54.23;93550.88;5016630;28;20025;-89
2023/04/25 01:38:57;;;;;;;8.60;1.55;;;;;;;14.51;55.56;93559.78;5000482;28;20061;-89
2023/04/25 01:41:23;;;;;;;9.15;1.52;;;;;;;14.98;54.84;93553.81;5016584;28;20431;-90
2023/04/25 01:43:48;;;;;;;5.97;1.45;;;;;;;14.98;54.44;93551.16;5016381;28;20022;-90
2023/04/25 01:46:14;;;;;;;12.80;1.75;;;;;;;15.00;53.74;93542.94;5000121;28;20118;-90
2023/04/25 01:48:39;;;;;;;9.40;1.50;;;;;;;15.05;53.83;93542.78;5016087;28;20360;-89
2023/04/25 01:51:04;;;;;;;7.13;1.30;;;;;;;15.07;53.86;93550.38;5016472;28;20032;-89
2023/04/25 01:53:30;;;;;;;10.48;1.42;;;;;;;14.62;55.36;93548.88;5016421;28;20441;-89
2023/04/25 01:56:06;;;;;;;6.78;1.25;;;;;;;14.74;55.70;93541.16;5016353;28;20428;-89
2023/04/25 01:58:31;;;;;;;4.93;1.05;;;;;;;15.04;55.09;93546.50;5016258;28;20034;-89
2023/04/25 02:00:57;;;;;;;8.07;1.17;;;;;;;14.93;54.73;93540.03;5016181;28;20066;-89
2023/04/25 02:03:22;;;;;;;5.45;1.15;;;;;;;15.01;53.79;93530.56;5017487;28;20030;-90
2023/04/25 02:05:48;;;;;;;5.28;1.15;;;;;;;14.99;54.71;93530.84;5016293;28;20026;-88
2023/04/25 02:08:13;;;;;;;8.05;1.67;;;;;;;15.11;55.09;93533.59;5000003;28;20072;-89
2023/04/25 02:10:38;;;;;;;7.80;1.55;;;;;;;15.16;55.42;93529.25;5016213;28;20324;-90
2023/04/25 02:13:05;;;;;;;8.40;1.98;;;;;;;14.96;55.50;93524.34;5015892;28;20124;-89
2023/04/25 02:15:30;;;;;;;10.85;1.40;;;;;;;14.87;56.38;93522.81;5016113;28;20025;-89
2023/04/25 02:17:56;;;;;;;6.13;1.30;;;;;;;15.24;56.66;93520.53;5015875;28;20026;-89
2023/04/25 02:20:22;;;;;;;5.47;1.50;;;;;;;15.64;55.82;93520.19;5016027;28;20041;-88
2023/04/25 02:22:47;;;;;;;6.00;0.93;;;;;;;15.03;57.40;93505.38;5015775;28;20431;-89
2023/04/25 02:25:13;;;;;;;10.13;1.73;;;;;;;15.14;58.06;93516.38;5015805;28;20022;-89
2023/04/25 02:27:38;;;;;;;6.05;1.35;;;;;;;15.17;57.76;93509.69;4999918;28;20029;-89
2023/04/25 02:30:06;;;;;;;10.45;1.77;;;;;;;15.91;55.79;93499.66;5015588;28;20037;-89
2023/04/25 02:32:32;;;;;;;5.85;1.00;;;;;;;15.97;54.89;93503.69;5016054;28;20026;-89
2023/04/25 02:35:02;;;;;;;5.38;1.92;;;;;;;15.55;56.09;93498.31;5006788;28;20045;-89
2023/04/25 02:37:37;;;;;;;9.43;1.45;;;;;;;15.69;55.45;93504.13;4980989;28;20128;-90
2023/04/25 02:40:03;;;;;;;8.55;1.88;;;;;;;14.91;58.20;93505.28;4995928;28;20037;-89
2023/04/25 02:42:29;;;;;;;7.78;1.48;;;;;;;15.26;57.18;93502.50;4996252;28;20060;-89
2023/04/25 02:44:55;;;;;;;8.70;1.52;;;;;;;15.11;56.11;93499.31;4996277;28;20448;-89
2023/04/25 02:47:20;;;;;;;5.07;1.50;;;;;;;15.06;59.79;93488.94;4997311;28;20432;-89
2023/04/25 02:49:46;;;;;;;9.27;1.60;;;;;;;15.01;58.77;93502.28;4980362;28;20486;-89
2023/04/25 02:52:12;;;;;;;9.93;1.45;;;;;;;14.54;61.34;93490.63;4980085;28;20486;-89
2023/04/25 02:54:38;;;;;;;4.50;1.40;;;;;;;15.11;58.79;93487.97;4985523;28;20359;-89
2023/04/25 02:57:07;;;;;;;8.30;1.73;;;;;;;15.05;59.21;93495.28;5015658;28;20040;-89
2023/04/25 02:59:33;;;;;;;10.15;1.45;;;;;;;14.69;59.42;93489.31;5010095;28;20042;-89
2023/04/25 03:01:58;;;;;;;13.85;1.95;;;;;;;14.65;59.65;93487.66;5012324;28;20181;-90
2023/04/25 03:04:24;;;;;;;5.55;1.15;;;;;;;14.85;57.87;93486.22;4988568;28;20077;-90
2023/04/25 03:06:50;;;;;;;3.75;1.20;;;;;;;14.99;57.46;93478.09;5016319;28;20061;-90
2023/04/25 03:09:16;;;;;;;11.93;1.95;;;;;;;15.06;57.32;93478.41;5016378;28;20080;-90
2023/04/25 03:11:42;;;;;;;8.18;1.33;;;;;;;15.14;56.47;93471.53;4999773;28;20044;-91
2023/04/25 03:14:07;;;;;;;8.65;1.35;;;;;;;15.02;57.58;93458.25;4999576;28;20093;-91
2023/04/25 03:16:33;;;;;;;4.45;1.00;;;;;;;14.80;58.17;93457.38;4999582;28;20428;-91
2023/04/25 03:18:59;;;;;;;8.60;1.45;;;;;;;14.56;58.43;93462.06;4983285;28;20048;-90
2023/04/25 03:21:26;;;;;;;10.38;1.73;;;;;;;15.00;57.67;93452.50;4983359;28;20038;-91
2023/04/25 03:23:51;;;;;;;5.63;1.33;;;;;;;14.45;59.28;93458.22;4999534;28;20034;-90
2023/04/25 03:26:17;;;;;;;4.93;1.50;;;;;;;15.23;56.53;93459.06;5004747;28;20500;-91
2023/04/25 03:28:42;;;;;;;8.25;1.98;;;;;;;15.04;58.41;93462.09;5018995;28;20034;-91
2023/04/25 03:31:08;;;;;;;5.65;1.42;;;;;;;15.59;55.87;93456.97;5019105;28;20403;-90
2023/04/25 03:33:33;;;;;;;6.13;1.45;;;;;;;15.41;56.38;93458.94;5018756;28;20034;-91
2023/04/25 03:35:58;;;;;;;5.78;1.40;;;;;;;15.27;56.58;93457.31;5002550;28;20088;-91
2023/04/25 03:38:24;;;;;;;10.60;1.73;;;;;;;15.06;57.53;93459.94;5002775;28;20072;-90
2023/04/25 03:40:50;;;;;;;9.82;1.98;;;;;;;15.06;58.29;93444.09;5002635;28;20040;-90
2023/04/25 03:43:16;;;;;;;7.57;1.30;;;;;;;15.16;57.54;93450.09;5018672;28;20029;-91
2023/04/25 03:45:41;;;;;;;13.07;1.92;;;;;;;15.07;57.70;93445.66;5018530;28;20033;-90
2023/04/25 03:48:06;;;;;;;9.75;1.77;;;;;;;15.03;57.56;93443.97;5002308;28;20026;-90
2023/04/25 03:50:32;;;;;;;11.88;2.08;;;;;;;14.83;58.94;93441.72;5002396;28;20371;-90
2023/04/25 03:52:57;;;;;;;9.93;2.22;;;;;;;14.68;60.61;93442.97;5018440;28;20034;-90
2023/04/25 03:55:23;;;;;;;12.40;2.30;;;;;;;14.78;59.32;93447.16;5018389;28;20037;-90
2023/04/25 03:57:48;;;;;;;6.57;1.55;;;;;;;14.86;58.75;93436.88;5002431;28;20037;-90
2023/04/25 04:00:14;;;;;;;8.98;1.50;;;;;;;14.98;58.04;93439.63;5018386;28;20549;-90
2023/04/25 04:02:39;;;;;;;10.65;2.08;;;;;;;14.88;58.71;93435.50;5002233;28;20037;-91
2023/04/25 04:05:05;;;;;;;7.82;1.52;;;;;;;14.59;59.84;93444.88;5018505;28;20120;-90
2023/04/25 04:07:32;;;;;;;11.48;1.30;;;;;;;14.28;61.54;93436.09;5001131;28;20056;-91
2023/04/25 04:09:58;;;;;;;10.50;1.48;;;;;;;14.49;59.78;93432.81;5018366;28;20037;-90
2023/04/25 04:12:23;;;;;;;8.52;1.95;;;;;;;14.60;59.88;93429.81;5002014;28;20033;-91
2023/04/25 04:14:49;;;;;;;14.75;1.50;;;;;;;14.98;56.92;93426.44;5017992;28;20087;-91
2023/04/25 04:17:14;;;;;;;12.70;1.70;;;;;;;14.84;59.24;93427.44;5001846;28;20044;-90
2023/04/25 04:19:39;;;;;;;5.05;1.42;;;;;;;15.08;58.65;93433.22;5017976;28;20107;-90
2023/04/25 04:22:05;;;;;;;7.65;1.60;;;;;;;14.93;58.52;93432.66;5018261;28;20034;-90
2023/04/25 04:24:30;;;;;;;6.85;1.48;;;;;;;14.75;59.29;93437.22;5017928;28;20026;-91
2023/04/25 04:26:56;;;;;;;6.68;1.42;;;;;;;14.62;60.14;93441.59;5018106;28;20029;-90
2023/04/25 04:29:22;;;;;;;6.97;1.55;;;;;;;14.71;61.03;93433.66;5017711;28;20030;-90
2023/04/25 04:31:52;;;;;;;6.82;1.63;;;;;;;14.98;60.21;93432.47;5001722;28;20080;-91
2023/04/25 04:34:18;;;;;;;9.07;1.65;;;;;;;14.87;59.92;93428.66;5017731;28;20041;-91
2023/04/25 04:36:45;;;;;;;4.07;1.17;;;;;;;14.81;58.80;93430.72;5001783;28;20025;-90
2023/04/25 04:39:11;;;;;;;10.68;1.88;;;;;;;14.80;59.04;93434.44;5017630;28;20057;-90
2023/04/25 04:41:37;;;;;;;10.63;1.60;;;;;;;15.02;58.04;93440.53;5017967;28;20073;-90
2023/04/25 04:44:02;;;;;;;7.97;1.40;;;;;;;15.13;57.21;93447.00;5017797;28;20351;-91
2023/04/25 04:46:28;;;;;;;6.30;1.88;;;;;;;15.04;59.54;93451.53;5001379;28;20351;-90
2023/04/25 04:48:53;;;;;;;9.48;1.73;;;;;;;14.99;59.27;93446.44;5001200;28;20021;-92
2023/04/25 04:51:20;;;;;;;8.02;1.50;;;;;;;15.10;58.21;93457.41;5017373;28;20530;-90
2023/04/25 04:53:46;;;;;;;5.70;1.42;;;;;;;15.18;58.42;93459.25;5017263;28;20021;-91
2023/04/25 04:56:11;;;;;;;7.90;1.38;;;;;;;15.16;58.26;93463.28;5001172;28;20045;-90
2023/04/25 04:58:37;;;;;;;17.67;2.45;;;;;;;15.24;58.35;93473.78;5017256;28;20333;-90
2023/04/25 05:01:02;;;;;;;7.00;1.60;;;;;;;15.64;56.76;93485.06;5017253;28;20038;-90
2023/04/25 05:03:28;;;;;;;6.70;1.73;;;;;;;15.87;55.25;93472.31;5001062;28;20060;-90
2023/04/25 05:05:53;;;;;;;7.57;1.60;;;;;;;15.90;56.98;93468.31;5017050;28;20065;-90
2023/04/25 05:08:19;;;;;;;9.57;1.70;;;;;;;15.66;57.57;93475.75;5016942;28;20040;-90
2023/04/25 05:10:44;;;;;;;10.70;1.98;;;;;;;16.10;57.13;93475.44;5014594;28;20432;-91
2023/04/25 05:13:10;;;;;;;7.00;2.05;;;;;;;16.20;58.06;93476.91;4997678;28;20416;-90
2023/04/25 05:15:35;;;;;;;7.60;1.88;;;;;;;16.15;58.75;93476.34;5004511;28;20037;-89
2023/04/25 05:18:01;;;;;;;18.45;2.45;;;;;;;16.44;57.55;93482.63;4998241;28;20038;-88
2023/04/25 05:20:27;;;;;;;11.70;2.03;;;;;;;16.17;57.31;93482.09;5001442;28;20420;-89
2023/04/25 05:22:52;;;;;;;9.05;2.00;;;;;;;16.24;57.68;93484.97;5000639;28;20040;-87
2023/04/25 05:25:18;;;;;;;13.82;2.15;;;;;;;16.33;56.93;93488.31;5017110;28;20061;-89
2023/04/25 05:27:43;;;;;;;7.88;1.83;;;;;;;16.17;56.63;93490.00;5016883;28;20052;-89
2023/04/25 05:30:11;;;;;;;6.35;1.70;;;;;;;16.32;57.89;93494.69;5016514;28;20034;-88
2023/04/25 05:32:37;;;;;;;4.30;1.27;;;;;;;16.25;58.92;93497.06;5010184;28;20041;-88
2023/04/25 05:35:02;;;;;;;11.73;1.50;;;;;;;16.40;59.48;93493.81;4996999;28;20038;-88
2023/04/25 05:37:30;;;;;;;9.70;1.65;;;;;;;16.53;61.07;93502.59;4981073;28;20034;-87
2023/04/25 05:39:55;;;;;;;7.70;1.95;;;;;;;17.00;59.35;93508.66;4996885;28;20030;-86
2023/04/25 05:42:21;;;;;;;5.38;1.58;;;;;;;16.99;57.44;93517.72;4996679;28;20030;-86
2023/04/25 05:44:46;;;;;;;6.50;1.88;;;;;;;17.21;55.32;93505.16;4980621;28;20026;-86
2023/04/25 05:47:15;;;;;;;7.20;1.45;;;;;;;16.80;57.77;93508.41;4996624;28;20038;-86
2023/04/25 05:49:41;;;;;;;9.35;1.63;;;;;;;16.87;56.71;93512.38;4980787;28;20037;-87
2023/04/25 05:52:06;;;;;;;4.57;1.40;;;;;;;16.97;54.74;93511.94;4997030;28;20034;-87
2023/04/25 05:54:32;;;;;;;6.25;1.42;;;;;;;17.14;54.98;93502.28;4996761;28;20041;-87
2023/04/25 05:56:57;;;;;;;7.05;1.45;;;;;;;16.80;56.00;93511.03;4980828;28;20023;-87
2023/04/25 05:59:23;;;;;;;11.88;1.83;;;;;;;16.13;58.29;93504.94;4996682;28;20088;-87
2023/04/25 06:01:48;;;;;;;8.07;1.52;;;;;;;16.60;57.01;93502.06;4980866;28;20026;-89
2023/04/25 06:04:13;;;;;;;7.45;1.48;;;;;;;16.49;58.10;93501.69;4980557;28;20117;-91
2023/04/25 06:06:39;;;;;;;6.93;1.67;;;;;;;16.82;57.31;93508.06;4980480;28;20034;-90
2023/04/25 06:09:04;;;;;;;6.70;1.42;;;;;;;17.16;55.81;93506.16;4996349;28;20328;-90
2023/04/25 06:11:30;;;;;;;13.05;2.13;;;;;;;17.36;58.57;93509.81;4996577;28;20034;-91
2023/04/25 06:13:55;;;;;;;7.07;2.05;;;;;;;17.67;57.05;93508.47;4996159;28;20036;-90
2023/04/25 06:16:20;;;;;;;8.60;1.52;;;;;;;17.93;56.56;93514.50;4996300;28;20070;-90
2023/04/25 06:18:46;;;;;;;9.27;2.03;;;;;;;17.80;55.15;93517.16;4980241;28;20034;-91
2023/04/25 06:21:11;;;;;;;6.80;1.60;;;;;;;17.92;55.52;93513.72;4996615;28;20041;-91
2023/04/25 06:23:37;;;;;;;10.80;1.90;;;;;;;18.11;55.54;93515.03;4996360;28;20117;-91
2023/04/25 06:26:02;;;;;;;6.82;1.60;;;;;;;18.06;56.58;93516.03;4980571;28;20447;-90
2023/04/25 06:28:28;;;;;;;6.38;1.70;;;;;;;18.35;57.95;93514.19;4996298;28;20022;-91
2023/04/25 06:30:54;;;;;;;9.05;1.85;;;;;;;18.44;57.29;93516.69;4980005;28;20443;-91
2023/04/25 06:33:20;;;;;;;8.15;2.40;;;;;;;18.41;57.48;93513.94;4979822;28;20180;-90
2023/04/25 06:35:45;;;;;;;14.52;2.50;;;;;;;18.58;57.62;93512.88;5009186;28;20503;-89
2023/04/25 06:38:11;;;;;;;8.90;1.70;;;;;;;18.63;57.75;93509.97;5015916;28;20156;-91
2023/04/25 06:40:36;;;;;;;6.68;2.03;;;;;;;18.65;58.84;93519.13;5015691;28;20036;-90
2023/04/25 06:43:02;;;;;;;16.05;2.15;;;;;;;18.58;57.91;93518.97;5015704;28;20037;-90
2023/04/25 06:45:28;;;;;;;10.55;2.15;;;;;;;18.87;56.55;93505.66;4999476;28;20124;-91
2023/04/25 06:47:53;;;;;;;14.75;2.65;;;;;;;18.51;56.91;93510.81;5016775;28;20026;-90
2023/04/25 06:50:18;;;;;;;11.10;2.08;;;;;;;18.85;58.33;93507.88;5016724;28;20176;-91
2023/04/25 06:52:44;;;;;;;8.23;2.08;;;;;;;19.05;55.18;93503.47;5016784;28;20025;-90
2023/04/25 06:55:09;;;;;;;7.88;2.10;;;;;;;19.18;55.10;93504.94;4999388;28;20033;-91
2023/04/25 06:57:34;;;;;;;5.70;1.40;;;;;;;19.18;53.54;93509.47;5015616;28;20084;-90
2023/04/25 07:00:00;;;;;;;8.68;1.70;;;;;;;19.56;53.46;93513.38;4999259;28;20133;-90
2023/04/25 07:02:25;;;;;;;6.50;1.45;;;;;;;19.64;52.59;93515.06;4999240;28;20029;-90
2023/04/25 07:04:51;;;;;;;8.40;1.80;;;;;;;19.66;51.28;93506.78;4999350;28;20024;-90
2023/04/25 07:07:17;;;;;;;10.68;2.25;;;;;;;19.62;51.98;93501.38;4999291;28;20029;-90
2023/04/25 07:09:42;;;;;;;9.60;1.77;;;;;;;20.03;51.54;93500.34;5015374;28;20026;-90
2023/04/25 07:12:07;;;;;;;8.77;1.92;;;;;;;19.60;50.51;93503.59;4999309;28;20036;-90
2023/04/25 07:14:33;;;;;;;9.43;1.88;;;;;;;19.77;51.06;93513.09;5015440;28;20136;-91
2023/04/25 07:17:08;;;;;;;9.30;1.92;;;;;;;19.90;50.85;93505.00;4999380;28;20347;-91
2023/04/25 07:19:34;;;;;;;6.88;1.90;;;;;;;19.56;51.34;93512.59;4999284;28;20387;-91
2023/04/25 07:22:00;;;;;;;9.77;2.08;;;;;;;19.63;52.00;93512.78;5015622;28;20040;-92
2023/04/25 07:24:25;;;;;;;9.50;2.42;;;;;;;19.49;52.14;93514.00;4999430;28;20022;-92
2023/04/25 07:27:02;;;;;;;6.38;1.55;;;;;;;19.90;50.70;93512.97;4987190;28;20030;-88
2023/04/25 07:29:27;;;;;;;7.07;1.90;;;;;;;20.01;52.31;93508.69;4997480;28;20022;-88
2023/04/25 07:31:53;;;;;;;4.13;1.48;;;;;;;20.59;50.51;93523.13;5015319;28;20037;-87
2023/04/25 07:34:19;;;;;;;7.57;1.88;;;;;;;20.14;49.86;93519.19;5015226;28;20037;-88
2023/04/25 07:36:44;;;;;;;8.07;1.77;;;;;;;20.06;49.50;93524.38;4999064;28;20424;-88
2023/04/25 07:39:10;;;;;;;9.38;1.95;;;;;;;20.40;50.11;93510.59;4998699;28;20076;-88
2023/04/25 07:41:36;;;;;;;6.75;1.63;;;;;;;19.88;49.71;93523.19;5018557;28;20025;-88
2023/04/25 07:44:01;;;;;;;8.93;1.88;;;;;;;20.06;49.92;93531.56;5018767;28;20033;-87
2023/04/25 07:46:26;;;;;;;9.85;1.98;;;;;;;20.64;50.86;93519.38;5002670;28;20029;-89
2023/04/25 07:48:52;;;;;;;9.57;2.00;;;;;;;20.48;50.43;93525.56;5002155;28;20030;-88
2023/04/25 07:51:19;;;;;;;5.47;1.60;;;;;;;20.24;48.04;93531.19;5006361;28;20035;-89
2023/04/25 07:53:45;;;;;;;13.27;1.90;;;;;;;20.58;51.72;93534.09;5019805;28;20079;-89
2023/04/25 07:56:11;;;;;;;15.10;2.20;;;;;;;21.31;49.51;93541.50;5018551;28;20486;-89
2023/04/25 07:58:36;;;;;;;13.00;2.30;;;;;;;20.33;50.77;93532.50;5019280;28;20503;-89
2023/04/25 08:01:02;;;;;;;11.45;2.15;;;;;;;20.68;51.54;93536.22;5019595;28;20033;-88
2023/04/25 08:03:27;;;;;;;8.55;2.20;;;;;;;20.45;49.96;93544.13;5018688;28;20064;-89
2023/04/25 08:05:52;;;;;;;6.50;1.95;;;;;;;21.07;48.55;93534.63;5018174;28;20080;-88
2023/04/25 08:08:18;;;;;;;9.93;2.25;;;;;;;21.63;45.53;93554.56;5001777;28;20034;-88
2023/04/25 08:10:43;;;;;;;7.78;2.13;;;;;;;21.67;43.58;93546.66;5002058;28;20132;-88
2023/04/25 08:13:09;;;;;;;10.27;1.95;;;;;;;21.55;42.93;93553.69;5018300;28;20029;-90
2023/04/25 08:15:34;;;;;;;7.80;1.73;;;;;;;21.69;44.63;93555.06;5017853;28;20113;-89
2023/04/25 08:17:59;;;;;;;8.32;2.28;;;;;;;21.35;46.62;93570.84;5001726;28;20092;-89
2023/04/25 08:20:25;;;;;;;9.30;3.05;;;;;;;21.79;46.71;93573.09;5018324;28;20034;-89
2023/04/25 08:22:51;;;;;;;12.73;3.00;;;;;;;20.76;47.07;93585.03;5018420;28;20037;-89
2023/04/25 08:25:16;;;;;;;9.52;2.78;;;;;;;20.21;48.14;93585.81;5019158;28;20080;-89
2023/04/25 08:27:43;;;;;;;12.52;3.85;;;;;;;20.82;45.86;93583.63;5001857;28;20390;-88
2023/04/25 08:30:08;;;;;;;10.32;3.72;;;;;;;21.93;46.39;93595.75;5001810;28;20057;-89
2023/04/25 08:32:34;;;;;;;18.48;5.60;;;;;;;20.95;47.68;93602.13;5001723;28;20065;-89
2023/04/25 08:34:59;;;;;;;12.68;5.32;;;;;;;22.16;45.92;93607.16;5001425;28;20091;-88
2023/04/25 08:37:25;;;;;;;12.30;5.57;;;;;;;21.38;46.37;93607.47;5019043;28;20079;-89
2023/04/25 08:39:53;;;;;;;12.43;5.80;;;;;;;20.10;49.27;93620.16;5001260;28;20029;-89
2023/04/25 08:42:19;;;;;;;11.70;5.45;;;;;;;19.33;51.09;93611.50;4998829;28;20117;-88
2023/04/25 08:44:46;;;;;;;12.90;4.95;;;;;;;20.18;49.61;93616.53;4998082;28;20444;-89
2023/04/25 08:47:11;;;;;;;16.58;5.80;;;;;;;20.25;48.78;93615.91;4998059;28;20391;-89
2023/04/25 08:49:37;;;;;;;13.13;5.72;;;;;;;20.24;49.90;93613.63;5007689;28;20086;-89
2023/04/25 08:52:05;;;;;;;11.00;5.22;;;;;;;20.75;50.72;93624.16;5017062;28;20042;-90
2023/04/25 08:54:31;;;;;;;11.65;5.10;;;;;;;20.03;50.16;93623.44;5001192;28;20044;-89
2023/04/25 08:56:58;;;;;;;10.70;5.10;;;;;;;19.96;51.22;93630.47;5001296;28;20495;-89
2023/04/25 08:59:23;;;;;;;14.10;5.07;;;;;;;20.26;52.04;93628.09;5017281;28;20034;-89
2023/04/25 09:01:50;;;;;;;12.27;6.30;;;;;;;20.71;50.54;93647.28;5007290;28;20045;-89
2023/04/25 09:04:15;;;;;;;10.07;5.18;;;;;;;20.93;50.29;93646.97;4984155;28;20049;-89
2023/04/25 09:06:41;;;;;;;14.32;5.88;;;;;;;21.15;50.34;93650.81;5017318;28;20033;-90
2023/04/25 09:09:10;;;;;;;13.20;5.60;;;;;;;21.62;50.06;93651.66;5017393;28;20061;-90
2023/04/25 09:11:36;;;;;;;15.45;7.32;;;;;;;20.58;51.90;93654.59;5016971;28;20068;-90
2023/04/25 09:14:20;;;;;;;19.90;6.28;;;;;;;21.31;50.20;93656.06;5016728;28;20065;-90
2023/04/25 09:17:00;;;;;;;;;;;;;;;21.29;50.66;93663.59;5017623;28;20049;-91
2023/04/25 09:19:30;;;;;;;16.83;7.57;;;;;;;20.15;52.81;93665.09;5016903;28;19917;-90
2023/04/25 09:22:00;;;;;;;12.13;7.60;;;;;;;19.95;52.79;93666.16;5014651;28;20029;-90
2023/04/25 09:24:45;;;;;;;13.68;6.82;;;;;;;20.76;52.11;93664.88;4980916;28;20027;-89
2023/04/25 09:27:17;;;;;;;18.85;8.85;;;;;;;19.84;54.96;93679.94;4997265;28;20030;-91
2023/04/25 09:29:42;;;;;;;19.52;9.15;;;;;;;18.86;60.41;93677.38;4980600;28;20085;-90
2023/04/25 09:32:19;;;;;;;16.10;10.13;;;;;;;18.76;61.74;93683.16;4998119;28;20038;-91
2023/04/25 09:34:50;;;;;;;18.27;11.77;;;;;;;18.49;62.52;93688.06;4996983;28;20030;-89
2023/04/25 09:37:30;;;;;;;18.85;12.10;;;;;;;17.59;72.37;93699.28;4981599;28;20034;-89
2023/04/25 09:40:02;;;;;;;20.63;12.25;;;;;;;18.20;68.83;93703.13;4996975;28;20030;-91
2023/04/25 09:42:30;;;;;;;23.55;14.27;;;;;;;17.28;73.00;93696.00;4981234;28;20034;-90
2023/04/25 09:44:56;;;;;;;20.52;14.55;;;;;;;17.32;74.69;93704.81;4980901;28;20035;-90
2023/04/25 09:47:23;;;;;;;23.13;14.15;;;;;;;17.00;79.42;93696.53;4996754;28;20034;-90
2023/04/25 09:49:50;;;;;;;21.65;14.48;;;;;;;17.15;78.97;93695.19;4996668;28;20522;-90
2023/04/25 09:52:20;;;;;;;21.27;12.65;;;;;;;18.54;71.58;93703.00;4996899;28;20455;-89
2023/04/25 09:54:47;;;;;;;20.83;13.02;;;;;;;18.32;70.04;93707.63;4980570;28;20038;-90
2023/04/25 09:57:15;;;;;;;18.02;11.55;;;;;;;18.43;66.99;93705.31;4996567;28;20034;-90
2023/04/25 09:59:49;;;;;;;15.32;11.20;;;;;;;18.63;68.23;93707.06;4997599;28;20499;-90
2023/04/25 10:02:18;;;;;;;16.08;11.20;;;;;;;18.20;68.65;93701.22;4980526;28;20030;-89
2023/04/25 10:04:48;;;;;;;15.60;9.27;;;;;;;17.70;72.82;93696.97;4990323;28;20022;-89
2023/04/25 10:07:14;;;;;;;16.88;9.25;;;;;;;17.82;71.54;93702.31;5000083;28;20025;-90
2023/04/25 10:09:39;;;;;;;14.13;7.15;;;;;;;17.53;70.23;93701.38;4999662;28;20194;-90
2023/04/25 10:12:07;;;;;;;12.18;6.20;;;;;;;17.90;70.98;93692.69;4999851;28;20034;-89
2023/04/25 10:14:32;;;;;;;10.45;5.25;;;;;;;18.16;66.83;93705.66;5000097;28;20034;-89
2023/04/25 10:17:03;;;;;;;10.35;5.75;;;;;;;18.88;66.04;93698.28;4999985;28;20395;-89
2023/04/25 10:19:29;;;;;;;12.90;5.05;;;;;;;19.09;66.39;93697.38;5000001;28;20049;-90
2023/04/25 10:22:13;;;;;;;10.50;4.22;;;;;;;19.26;61.74;93697.06;4999799;28;20034;-90
2023/04/25 10:24:39;;;;;;;7.85;4.25;;;;;;;18.97;64.48;93693.59;5017002;28;20100;-89
2023/04/25 10:27:05;;;;;;;7.97;3.35;;;;;;;18.59;67.05;93705.41;4999960;28;20030;-90
2023/04/25 10:29:31;;;;;;;6.75;3.38;;;;;;;18.43;66.71;93702.66;4999439;28;20037;-90
2023/04/25 10:31:57;;;;;;;5.10;3.25;;;;;;;17.69;72.11;93700.72;5015947;28;20029;-89
2023/04/25 10:34:42;;;;;;;6.90;3.30;;;;;;;17.68;71.94;93697.28;5015931;28;20038;-91
2023/04/25 10:37:11;;;;;;;6.30;3.35;;;;;;;17.80;71.50;93693.91;5011653;28;20022;-90
2023/04/25 10:39:40;;;;;;;7.32;3.70;;;;;;;17.53;70.50;93693.41;4991804;28;20029;-90
2023/04/25 10:42:05;;;;;;;8.35;3.33;;;;;;;17.35;74.71;93687.50;4983667;28;20040;-90
2023/04/25 10:44:31;;;;;;;8.95;3.55;;;;;;;17.30;76.72;93699.06;5000852;28;20117;-90
2023/04/25 10:46:58;;;;;;;7.78;3.17;;;;;;;16.88;75.20;93697.22;4997195;28;20072;-90
2023/04/25 10:49:33;;;;;;;8.82;3.00;;;;;;;17.73;71.08;93704.25;4980150;28;20038;-90
2023/04/25 10:52:18;;;;;;;7.15;3.55;;;;;;;16.58;77.28;93697.28;4996032;28;20030;-89
2023/04/25 10:54:47;;;;;;;8.15;3.08;;;;;;;16.79;81.04;93692.00;4980141;28;20081;-89
2023/04/25 10:57:38;;;;;;;12.77;4.15;;;;;;;16.96;79.36;93691.09;4997027;28;20034;-89
2023/04/25 11:00:05;;;;;;;12.27;3.92;;;;;;;17.17;76.64;93692.19;4996918;28;20428;-90
2023/04/25 11:02:30;;;;;;;8.77;4.22;;;;;;;17.25;76.97;93678.13;4994742;28;20030;-90
2023/04/25 11:04:56;;;;;;;15.18;5.05;;;;;;;17.99;70.35;93682.75;4997145;28;20355;-91
2023/04/25 11:07:37;;;;;;;15.20;3.92;;;;;;;18.08;68.26;93672.84;4979769;28;20034;-88
2023/04/25 11:10:04;;;;;;;14.10;3.72;;;;;;;19.07;63.52;93671.16;4979331;28;20034;-88
2023/04/25 11:12:31;;;;;;;11.70;3.85;;;;;;;19.99;61.78;93661.69;4995882;28;20456;-88
2023/04/25 11:15:04;;;;;;;9.20;3.20;;;;;;;20.15;58.63;93667.75;4995591;28;20337;-88
2023/04/25 11:17:30;;;;;;;7.95;3.95;;;;;;;19.77;60.21;93666.44;4983326;28;20447;-89
2023/04/25 11:19:56;;;;;;;7.15;3.42;;;;;;;19.32;61.43;93663.06;4999183;28;20034;-90
2023/04/25 11:22:22;;;;;;;12.68;3.53;;;;;;;18.69;65.67;93667.81;4999288;28;20088;-88
2023/04/25 11:24:47;;;;;;;7.05;3.88;;;;;;;19.67;61.50;93661.66;4999661;28;20027;-89
2023/04/25 11:27:20;;;;;;;8.95;3.30;;;;;;;20.62;58.68;93668.78;4999497;28;20122;-89
2023/04/25 11:29:47;;;;;;;10.55;3.45;;;;;;;20.32;57.19;93669.28;4999140;28;20041;-89